Time;durP1;ratioP1;P1;durP2;ratioP2;P2;SDS_P1;SDS_P2;PMS_P1;PMS_P2;Temp;Humidity;BMP_temperature;BMP_pressure;BME280_temperature;BME280_humidity;BME280_pressure;Samples;Min_cycle;Max_cycle;Signal;HPM_P1;HPM_P2
2022/10/01 00:01:42;;;;;;;;;;;23.30;48.90;;;;;;1641929;71;749;-67
2022/10/01 00:03:45;;;;;;;;;;;23.40;48.90;;;;;;1636189;71;711;-67
2022/10/01 00:05:47;;;;;;;;;;;23.30;48.90;;;;;;1632534;71;733;-68
2022/10/01 00:07:49;;;;;;;;;;;23.30;48.90;;;;;;1616436;71;1134;-67
2022/10/01 00:09:51;;;;;;;;;;;23.30;48.90;;;;;;1620429;71;748;-68
2022/10/01 00:11:53;;;;;;;;;;;23.30;48.90;;;;;;1636504;71;1944;-67
2022/10/01 00:13:55;;;;;;;;;;;23.30;48.90;;;;;;1636032;72;1572;-67
2022/10/01 00:15:58;;;;;;;;;;;23.30;48.90;;;;;;1639003;71;761;-67
2022/10/01 00:18:00;;;;;;;;;;;23.40;48.90;;;;;;1628343;71;1148;-68
2022/10/01 00:20:04;;;;;;;;;;;23.40;48.90;;;;;;1631991;71;709;-68
2022/10/01 00:22:06;;;;;;;;;;;23.40;48.80;;;;;;1639660;71;991;-67
2022/10/01 00:24:10;;;;;;;;;;;23.40;48.80;;;;;;1649178;71;773;-67
2022/10/01 00:26:13;;;;;;;;;;;23.40;48.80;;;;;;1640662;71;719;-67
2022/10/01 00:28:15;;;;;;;;;;;23.40;48.90;;;;;;1635320;71;1611;-68
2022/10/01 00:30:17;;;;;;;;;;;23.30;48.90;;;;;;1631929;71;717;-68
2022/10/01 00:32:19;;;;;;;;;;;23.40;48.90;;;;;;1637411;71;1938;-68
2022/10/01 00:34:21;;;;;;;;;;;23.40;48.90;;;;;;1624990;71;823;-67
2022/10/01 00:36:23;;;;;;;;;;;23.30;48.90;;;;;;1637555;71;761;-69
2022/10/01 00:38:26;;;;;;;;;;;23.40;48.80;;;;;;1628515;72;1176;-67
2022/10/01 00:40:28;;;;;;;;;;;23.40;48.80;;;;;;1635331;71;763;-68
2022/10/01 00:42:30;;;;;;;;;;;23.40;48.90;;;;;;1633860;71;1548;-66
2022/10/01 00:44:35;;;;;;;;;;;23.30;48.90;;;;;;1628693;71;768;-67
2022/10/01 00:46:43;;;;;;;;;;;23.30;48.90;;;;;;1627962;72;721;-68
2022/10/01 00:48:46;;;;;;;;;;;23.40;49.00;;;;;;1640702;71;1109;-68
2022/10/01 00:50:48;;;;;;;;;;;23.40;49.00;;;;;;1642146;71;1942;-67
2022/10/01 00:52:53;;;;;;;;;;;23.40;49.00;;;;;;1620709;71;812;-68
2022/10/01 00:54:56;;;;;;;;;;;23.40;49.10;;;;;;1635097;71;765;-67
2022/10/01 00:56:59;;;;;;;;;;;23.40;49.00;;;;;;1635046;71;1546;-67
2022/10/01 00:59:01;;;;;;;;;;;23.30;49.10;;;;;;1634131;71;1116;-67
2022/10/01 01:01:02;;;;;;;;;;;23.30;49.10;;;;;;1626659;71;717;-67
2022/10/01 01:03:04;;;;;;;;;;;23.40;49.10;;;;;;1627980;71;711;-67
2022/10/01 01:05:07;;;;;;;;;;;23.40;49.00;;;;;;1640843;71;693;-69
2022/10/01 01:07:09;;;;;;;;;;;23.30;49.20;;;;;;1638317;71;1143;-65
2022/10/01 01:09:11;;;;;;;;;;;23.30;49.20;;;;;;1626926;71;812;-68
2022/10/01 01:11:18;;;;;;;;;;;23.30;49.20;;;;;;1622731;71;1950;-67
2022/10/01 01:13:24;;;;;;;;;;;23.30;49.20;;;;;;1601342;71;1551;-67
2022/10/01 01:15:30;;;;;;;;;;;23.30;49.40;;;;;;1633109;71;1768;-67
2022/10/01 01:17:34;;;;;;;;;;;23.30;49.40;;;;;;1631281;71;1155;-67
2022/10/01 01:19:46;;;;;;;;;;;23.20;49.40;;;;;;1588413;72;1287;-67
2022/10/01 01:21:50;;;;;;;;;;;23.20;49.40;;;;;;1625403;71;785;-66
2022/10/01 01:24:10;;;;;;;;;;;23.20;49.40;;;;;;1624055;72;1536;-66
2022/10/01 01:26:15;;;;;;;;;;;23.20;49.50;;;;;;1632355;71;727;-67
2022/10/01 01:28:23;;;;;;;;;;;23.20;49.50;;;;;;1634493;71;1220;-65
2022/10/01 01:30:25;;;;;;;;;;;23.20;49.50;;;;;;1626293;71;753;-67
2022/10/01 01:32:29;;;;;;;;;;;23.20;49.40;;;;;;1636882;71;1943;-66
2022/10/01 01:34:31;;;;;;;;;;;23.20;49.50;;;;;;1628974;71;1788;-66
2022/10/01 01:36:36;;;;;;;;;;;23.20;49.50;;;;;;1633540;71;757;-67
2022/10/01 01:38:39;;;;;;;;;;;23.30;49.60;;;;;;1633056;71;1641;-66
2022/10/01 01:40:41;;;;;;;;;;;23.20;49.40;;;;;;1636250;71;736;-67
2022/10/01 01:42:43;;;;;;;;;;;23.20;49.40;;;;;;1632785;71;813;-68
2022/10/01 01:44:45;;;;;;;;;;;23.20;49.40;;;;;;1641660;71;815;-67
2022/10/01 01:46:48;;;;;;;;;;;23.20;49.40;;;;;;1626176;71;811;-67
2022/10/01 01:48:50;;;;;;;;;;;23.20;49.40;;;;;;1632931;71;1141;-67
2022/10/01 01:50:54;;;;;;;;;;;23.20;49.50;;;;;;1632406;71;662;-68
2022/10/01 01:52:56;;;;;;;;;;;23.20;49.50;;;;;;1637086;71;1903;-67
2022/10/01 01:54:58;;;;;;;;;;;23.20;49.40;;;;;;1639630;71;755;-67
2022/10/01 01:57:01;;;;;;;;;;;23.30;49.50;;;;;;1632716;71;750;-66
2022/10/01 01:59:02;;;;;;;;;;;23.20;49.40;;;;;;1627344;71;1117;-67
2022/10/01 02:01:04;;;;;;;;;;;23.20;49.40;;;;;;1635477;71;718;-67
2022/10/01 02:03:08;;;;;;;;;;;23.20;49.50;;;;;;1634831;71;805;-68
2022/10/01 02:05:11;;;;;;;;;;;23.20;49.60;;;;;;1624541;71;781;-66
2022/10/01 02:07:15;;;;;;;;;;;23.20;49.70;;;;;;1632065;71;1695;-67
2022/10/01 02:09:18;;;;;;;;;;;23.20;49.70;;;;;;1628036;71;717;-67
2022/10/01 02:11:22;;;;;;;;;;;23.20;49.70;;;;;;1632739;71;1915;-66
2022/10/01 02:13:25;;;;;;;;;;;23.10;49.80;;;;;;1637731;71;686;-66
2022/10/01 02:15:35;;;;;;;;;;;23.20;49.70;;;;;;1590112;74;1059;-66
2022/10/01 02:17:37;;;;;;;;;;;23.20;49.70;;;;;;1627634;71;1621;-65
2022/10/01 02:19:54;;;;;;;;;;;23.20;49.70;;;;;;1640264;71;1659;-67
2022/10/01 02:21:58;;;;;;;;;;;23.20;49.80;;;;;;1625150;71;846;-68
2022/10/01 02:24:13;;;;;;;;;;;23.20;49.80;;;;;;1636570;71;833;-67
2022/10/01 02:26:17;;;;;;;;;;;23.10;49.90;;;;;;1629941;71;2121;-66
2022/10/01 02:28:21;;;;;;;;;;;23.20;49.80;;;;;;1627896;71;1151;-66
2022/10/01 02:30:23;;;;;;;;;;;23.20;49.80;;;;;;1625497;71;689;-66
2022/10/01 02:32:25;;;;;;;;;;;23.20;49.80;;;;;;1627054;71;1938;-67
2022/10/01 02:34:28;;;;;;;;;;;23.20;49.70;;;;;;1633626;71;1571;-66
2022/10/01 02:36:30;;;;;;;;;;;23.30;49.60;;;;;;1642508;71;741;-66
2022/10/01 02:38:32;;;;;;;;;;;23.40;49.40;;;;;;1622130;71;1138;-65
2022/10/01 02:40:35;;;;;;;;;;;23.40;49.40;;;;;;1635262;71;558;-66
2022/10/01 02:42:37;;;;;;;;;;;23.30;49.30;;;;;;1633642;71;726;-66
2022/10/01 02:44:41;;;;;;;;;;;23.40;49.20;;;;;;1629687;71;805;-66
2022/10/01 02:46:50;;;;;;;;;;;23.40;49.20;;;;;;1626087;71;712;-66
2022/10/01 02:48:52;;;;;;;;;;;23.40;49.20;;;;;;1639673;71;1591;-68
2022/10/01 02:50:58;;;;;;;;;;;23.50;49.10;;;;;;1620346;71;815;-65
2022/10/01 02:53:08;;;;;;;;;;;23.40;49.20;;;;;;1637313;71;2065;-65
2022/10/01 02:55:10;;;;;;;;;;;23.40;49.20;;;;;;1632811;71;698;-68
2022/10/01 02:57:22;;;;;;;;;;;23.30;49.30;;;;;;1636388;71;1146;-68
2022/10/01 02:59:24;;;;;;;;;;;23.50;49.20;;;;;;1640467;71;712;-68
2022/10/01 03:01:26;;;;;;;;;;;23.50;49.00;;;;;;1629452;71;727;-69
2022/10/01 03:03:30;;;;;;;;;;;23.50;49.00;;;;;;1638571;72;1597;-68
2022/10/01 03:05:32;;;;;;;;;;;23.50;49.10;;;;;;1628267;71;750;-68
2022/10/01 03:07:34;;;;;;;;;;;23.50;49.00;;;;;;1627726;71;1173;-69
2022/10/01 03:09:36;;;;;;;;;;;23.50;48.90;;;;;;1632703;71;789;-68
2022/10/01 03:11:38;;;;;;;;;;;23.50;48.80;;;;;;1623379;71;1943;-69
2022/10/01 03:13:40;;;;;;;;;;;23.50;48.90;;;;;;1634113;72;791;-68
2022/10/01 03:15:42;;;;;;;;;;;23.50;48.80;;;;;;1639869;71;551;-68
2022/10/01 03:17:44;;;;;;;;;;;23.60;48.70;;;;;;1595474;72;1667;-68
2022/10/01 03:19:46;;;;;;;;;;;23.50;48.70;;;;;;1629063;71;792;-67
2022/10/01 03:21:48;;;;;;;;;;;23.50;48.60;;;;;;1632578;71;772;-68
2022/10/01 03:23:50;;;;;;;;;;;23.50;48.60;;;;;;1639254;71;737;-67
2022/10/01 03:25:52;;;;;;;;;;;23.50;48.50;;;;;;1622051;71;631;-68
2022/10/01 03:27:53;;;;;;;;;;;23.50;48.50;;;;;;1634857;71;1090;-67
2022/10/01 03:29:55;;;;;;;;;;;23.60;48.50;;;;;;1639374;71;724;-67
2022/10/01 03:31:57;;;;;;;;;;;23.50;48.50;;;;;;1635446;71;1947;-67
2022/10/01 03:33:59;;;;;;;;;;;23.60;48.30;;;;;;1622442;71;790;-68
2022/10/01 03:36:02;;;;;;;;;;;23.60;48.30;;;;;;1629983;71;802;-67
2022/10/01 03:38:04;;;;;;;;;;;23.60;48.30;;;;;;1627375;72;1119;-67
2022/10/01 03:40:07;;;;;;;;;;;23.60;48.30;;;;;;1621196;71;733;-67
2022/10/01 03:42:08;;;;;;;;;;;23.60;48.50;;;;;;1632231;71;926;-67
2022/10/01 03:44:10;;;;;;;;;;;23.50;48.60;;;;;;1636296;72;1521;-67
2022/10/01 03:46:12;;;;;;;;;;;23.40;48.60;;;;;;1640695;71;743;-67
2022/10/01 03:48:14;;;;;;;;;;;23.40;48.70;;;;;;1635490;71;1172;-68
2022/10/01 03:50:16;;;;;;;;;;;23.30;48.80;;;;;;1643291;71;800;-67
2022/10/01 03:52:18;;;;;;;;;;;23.30;49.00;;;;;;1630894;71;1928;-67
2022/10/01 03:54:20;;;;;;;;;;;23.40;48.90;;;;;;1630892;71;673;-67
2022/10/01 03:56:22;;;;;;;;;;;23.30;49.00;;;;;;1631209;71;684;-70
2022/10/01 03:58:24;;;;;;;;;;;23.40;49.00;;;;;;1643647;71;1540;-68
2022/10/01 04:00:26;;;;;;;;;;;23.30;48.90;;;;;;1637107;71;799;-67
2022/10/01 04:02:28;;;;;;;;;;;23.40;49.00;;;;;;1635720;71;699;-68
2022/10/01 04:04:30;;;;;;;;;;;23.40;48.90;;;;;;1624614;71;724;-67
2022/10/01 04:06:31;;;;;;;;;;;23.30;49.00;;;;;;1625298;72;788;-68
2022/10/01 04:08:33;;;;;;;;;;;23.40;49.00;;;;;;1640531;71;1140;-67
2022/10/01 04:10:35;;;;;;;;;;;23.40;49.00;;;;;;1616003;72;752;-67
2022/10/01 04:12:37;;;;;;;;;;;23.30;48.90;;;;;;1653319;71;1919;-68
2022/10/01 04:14:39;;;;;;;;;;;23.30;49.00;;;;;;1621685;71;700;-68
2022/10/01 04:16:41;;;;;;;;;;;23.30;49.10;;;;;;1620443;72;821;-67
2022/10/01 04:18:43;;;;;;;;;;;23.30;49.20;;;;;;1638661;71;1129;-67
2022/10/01 04:20:44;;;;;;;;;;;23.30;49.20;;;;;;1639851;71;763;-67
2022/10/01 04:22:46;;;;;;;;;;;23.30;49.20;;;;;;1635132;71;752;-67
2022/10/01 04:24:48;;;;;;;;;;;23.30;49.20;;;;;;1638900;71;610;-68
2022/10/01 04:26:50;;;;;;;;;;;23.30;49.20;;;;;;1636125;71;1471;-68
2022/10/01 04:28:52;;;;;;;;;;;23.40;49.10;;;;;;1638227;71;1132;-67
2022/10/01 04:31:40;;;;;;;;;;;23.30;49.20;;;;;;1628922;71;690;-68
2022/10/01 04:32:58;;;;;;;;;;;23.30;49.40;;;;;;1601442;71;1924;-66
2022/10/01 04:35:02;;;;;;;;;;;23.20;49.30;;;;;;1624406;71;727;-67
2022/10/01 04:37:04;;;;;;;;;;;23.30;49.50;;;;;;1635620;71;707;-68
2022/10/01 04:39:05;;;;;;;;;;;23.10;49.60;;;;;;1635767;71;1066;-68
2022/10/01 04:41:08;;;;;;;;;;;23.10;49.60;;;;;;1630246;71;1564;-68
2022/10/01 04:43:10;;;;;;;;;;;23.20;49.60;;;;;;1628966;71;727;-68
2022/10/01 04:45:12;;;;;;;;;;;23.20;49.60;;;;;;1644311;71;775;-69
2022/10/01 04:47:14;;;;;;;;;;;23.20;49.60;;;;;;1645214;71;1120;-69
2022/10/01 04:49:16;;;;;;;;;;;23.20;49.70;;;;;;1628874;71;731;-69
2022/10/01 04:51:18;;;;;;;;;;;23.20;49.70;;;;;;1622464;71;760;-68
2022/10/01 04:53:19;;;;;;;;;;;23.20;49.70;;;;;;1619552;71;1919;-68
2022/10/01 04:55:21;;;;;;;;;;;23.20;49.70;;;;;;1618260;71;1664;-68
2022/10/01 04:57:23;;;;;;;;;;;23.20;49.70;;;;;;1623640;71;1156;-67
2022/10/01 04:59:25;;;;;;;;;;;23.20;49.70;;;;;;1643607;71;934;-67
2022/10/01 05:01:27;;;;;;;;;;;23.20;49.60;;;;;;1625137;71;768;-68
2022/10/01 05:03:30;;;;;;;;;;;23.30;49.50;;;;;;1632800;71;815;-67
2022/10/01 05:05:33;;;;;;;;;;;23.30;49.40;;;;;;1632961;71;731;-68
2022/10/01 05:07:35;;;;;;;;;;;23.30;49.50;;;;;;1623303;71;1154;-67
2022/10/01 05:09:37;;;;;;;;;;;23.30;49.50;;;;;;1601555;72;1539;-67
2022/10/01 05:11:39;;;;;;;;;;;23.30;49.50;;;;;;1633440;71;831;-67
2022/10/01 05:13:41;;;;;;;;;;;23.30;49.50;;;;;;1636783;71;1928;-67
2022/10/01 05:15:43;;;;;;;;;;;23.20;49.50;;;;;;1631430;71;769;-67
2022/10/01 05:17:45;;;;;;;;;;;23.10;49.40;;;;;;1633291;71;1091;-67
2022/10/01 05:19:47;;;;;;;;;;;23.20;49.50;;;;;;1643558;71;729;-68
2022/10/01 05:21:50;;;;;;;;;;;23.20;49.40;;;;;;1636277;71;755;-68
2022/10/01 05:23:53;;;;;;;;;;;23.20;49.40;;;;;;1638176;71;1547;-67
2022/10/01 05:25:55;;;;;;;;;;;23.20;49.40;;;;;;1643191;71;851;-68
2022/10/01 05:27:58;;;;;;;;;;;23.30;49.50;;;;;;1628487;71;1140;-68
2022/10/01 05:30:00;;;;;;;;;;;23.20;49.40;;;;;;1649185;71;696;-68
2022/10/01 05:32:02;;;;;;;;;;;23.20;49.40;;;;;;1639090;71;778;-68
2022/10/01 05:34:04;;;;;;;;;;;23.20;49.40;;;;;;1624947;72;1931;-68
2022/10/01 05:36:06;;;;;;;;;;;23.20;49.40;;;;;;1626638;71;638;-68
2022/10/01 05:38:08;;;;;;;;;;;23.30;49.40;;;;;;1628527;71;1507;-68
2022/10/01 05:40:10;;;;;;;;;;;23.30;49.40;;;;;;1618674;71;776;-66
2022/10/01 05:42:12;;;;;;;;;;;23.30;49.40;;;;;;1639939;71;838;-67
2022/10/01 05:44:13;;;;;;;;;;;23.30;49.60;;;;;;1636945;71;810;-65
2022/10/01 05:46:15;;;;;;;;;;;23.30;49.50;;;;;;1627739;71;765;-66
2022/10/01 05:48:17;;;;;;;;;;;23.20;49.40;;;;;;1614941;70;2061;-66
2022/10/01 05:50:19;;;;;;;;;;;23.20;49.40;;;;;;1548687;75;822;-66
2022/10/01 05:52:21;;;;;;;;;;;23.20;49.50;;;;;;1556176;74;1488;-67
2022/10/01 05:54:23;;;;;;;;;;;23.20;49.60;;;;;;1555135;75;1939;-69
2022/10/01 05:56:25;;;;;;;;;;;23.10;49.60;;;;;;1554232;74;832;-69
2022/10/01 05:58:27;;;;;;;;;;;23.10;49.60;;;;;;1549747;75;1209;-66
2022/10/01 06:00:29;;;;;;;;;;;23.00;49.50;;;;;;1550533;74;806;-67
2022/10/01 06:02:31;;;;;;;;;;;23.00;49.60;;;;;;1553743;74;751;-66
2022/10/01 06:04:33;;;;;;;;;;;23.10;49.70;;;;;;1551172;75;726;-66
2022/10/01 06:06:35;;;;;;;;;;;23.00;49.70;;;;;;1562221;74;1568;-66
2022/10/01 06:08:37;;;;;;;;;;;23.00;49.70;;;;;;1562604;74;1155;-67
2022/10/01 06:10:38;;;;;;;;;;;23.00;49.70;;;;;;1564721;74;772;-67
2022/10/01 06:12:42;;;;;;;;;;;22.90;49.70;;;;;;1561942;74;1919;-69
2022/10/01 06:14:44;;;;;;;;;;;23.00;49.80;;;;;;1566200;74;769;-66
2022/10/01 06:16:46;;;;;;;;;;;22.90;49.80;;;;;;1548764;75;757;-65
2022/10/01 06:18:48;;;;;;;;;;;22.90;49.80;;;;;;1550179;75;1613;-66
2022/10/01 06:20:50;;;;;;;;;;;23.00;49.80;;;;;;1568746;74;972;-66
2022/10/01 06:22:53;;;;;;;;;;;23.00;49.80;;;;;;1561240;74;716;-65
2022/10/01 06:24:55;;;;;;;;;;;23.00;49.90;;;;;;1565481;74;762;-71
2022/10/01 06:26:57;;;;;;;;;;;22.90;49.90;;;;;;1563403;75;748;-66
2022/10/01 06:28:59;;;;;;;;;;;22.90;50.00;;;;;;1564415;74;1143;-67
2022/10/01 06:31:01;;;;;;;;;;;22.90;49.90;;;;;;1556996;74;757;-68
2022/10/01 06:33:05;;;;;;;;;;;22.90;50.00;;;;;;1571313;74;1928;-66
2022/10/01 06:35:07;;;;;;;;;;;22.90;50.00;;;;;;1563338;74;1812;-66
2022/10/01 06:37:09;;;;;;;;;;;22.90;50.00;;;;;;1554923;75;818;-66
2022/10/01 06:39:10;;;;;;;;;;;22.90;50.00;;;;;;1565993;74;1125;-67
2022/10/01 06:41:12;;;;;;;;;;;22.90;50.00;;;;;;1562575;74;763;-69
2022/10/01 06:43:14;;;;;;;;;;;22.90;50.00;;;;;;1566590;74;742;-64
2022/10/01 06:45:17;;;;;;;;;;;22.90;50.00;;;;;;1562539;74;755;-66
2022/10/01 06:47:18;;;;;;;;;;;22.90;50.10;;;;;;1561079;75;1573;-66
2022/10/01 06:49:21;;;;;;;;;;;22.90;50.00;;;;;;1555926;74;1255;-67
2022/10/01 06:52:47;;;;;;;;;;;22.90;50.10;;;;;;1561258;74;791;-69
2022/10/01 06:53:27;;;;;;;;;;;22.90;50.10;;;;;;1560643;74;1907;-67
2022/10/01 06:55:29;;;;;;;;;;;22.90;50.10;;;;;;1569851;74;750;-66
2022/10/01 06:57:33;;;;;;;;;;;22.90;50.10;;;;;;1560642;74;734;-66
2022/10/01 06:59:39;;;;;;;;;;;22.90;50.10;;;;;;1569612;74;1025;-66
2022/10/01 07:01:38;;;;;;;;;;;22.90;50.20;;;;;;1557286;74;1585;-67
2022/10/01 07:03:40;;;;;;;;;;;22.90;50.20;;;;;;1564170;74;792;-67
2022/10/01 07:05:42;;;;;;;;;;;22.90;50.20;;;;;;1556555;74;804;-70
2022/10/01 07:07:44;;;;;;;;;;;22.90;50.20;;;;;;1561375;74;1145;-66
2022/10/01 07:09:46;;;;;;;;;;;22.90;50.20;;;;;;1563208;74;762;-67
2022/10/01 07:11:48;;;;;;;;;;;22.90;50.20;;;;;;1560846;75;808;-67
2022/10/01 07:13:50;;;;;;;;;;;22.90;50.20;;;;;;1568209;75;1904;-67
2022/10/01 07:15:52;;;;;;;;;;;22.80;50.10;;;;;;1560630;74;1509;-65
2022/10/01 07:17:54;;;;;;;;;;;22.90;50.20;;;;;;1570340;74;1187;-67
2022/10/01 07:19:55;;;;;;;;;;;22.90;50.20;;;;;;1565510;74;713;-67
2022/10/01 07:21:57;;;;;;;;;;;22.90;50.20;;;;;;1565375;74;731;-67
2022/10/01 07:23:59;;;;;;;;;;;22.80;50.10;;;;;;1568169;74;730;-69
2022/10/01 07:26:03;;;;;;;;;;;22.90;50.20;;;;;;1565172;74;782;-66
2022/10/01 07:28:05;;;;;;;;;;;22.80;50.10;;;;;;1565224;74;1134;-66
2022/10/01 07:30:07;;;;;;;;;;;22.90;50.20;;;;;;1559678;75;1541;-66
2022/10/01 07:32:09;;;;;;;;;;;22.90;50.20;;;;;;1560075;74;785;-67
2022/10/01 07:34:11;;;;;;;;;;;22.90;50.20;;;;;;1565946;74;1947;-66
2022/10/01 07:36:13;;;;;;;;;;;22.80;50.10;;;;;;1564740;74;728;-66
2022/10/01 07:38:15;;;;;;;;;;;22.90;50.20;;;;;;1568620;74;1153;-68
2022/10/01 07:40:17;;;;;;;;;;;22.90;50.20;;;;;;1568860;75;789;-67
2022/10/01 07:42:20;;;;;;;;;;;22.80;50.10;;;;;;1559025;74;735;-67
2022/10/01 07:44:22;;;;;;;;;;;22.90;50.20;;;;;;1572102;74;1539;-65
2022/10/01 07:46:24;;;;;;;;;;;22.90;50.30;;;;;;1565333;74;786;-67
2022/10/01 07:48:26;;;;;;;;;;;22.80;50.20;;;;;;1561283;74;1206;-66
2022/10/01 07:50:29;;;;;;;;;;;22.90;50.20;;;;;;1566626;74;782;-67
2022/10/01 07:52:31;;;;;;;;;;;22.90;50.30;;;;;;1563055;75;761;-68
2022/10/01 07:54:33;;;;;;;;;;;22.90;50.30;;;;;;1565690;74;1912;-66
2022/10/01 07:56:35;;;;;;;;;;;22.90;50.30;;;;;;1568129;75;816;-66
2022/10/01 07:58:37;;;;;;;;;;;22.90;50.30;;;;;;1565373;74;1473;-66
2022/10/01 08:00:39;;;;;;;;;;;22.90;50.30;;;;;;1563980;74;760;-67
2022/10/01 08:02:42;;;;;;;;;;;22.80;50.20;;;;;;1566753;74;678;-66
2022/10/01 08:07:04;;;;;;;;;;;22.80;50.20;;;;;;1556323;75;1640;-66
2022/10/01 08:09:06;;;;;;;;;;;22.80;50.20;;;;;;1549514;74;1174;-66
2022/10/01 08:11:09;;;;;;;;;;;22.90;50.30;;;;;;1548758;75;767;-66
2022/10/01 08:13:16;;;;;;;;;;;22.90;50.30;;;;;;1562669;75;1709;-68
2022/10/01 08:15:15;;;;;;;;;;;22.90;50.30;;;;;;1564024;75;1536;-66
2022/10/01 08:17:17;;;;;;;;;;;22.90;50.30;;;;;;1565241;74;780;-68
2022/10/01 08:19:19;;;;;;;;;;;22.90;50.20;;;;;;1575016;74;1134;-67
2022/10/01 08:21:21;;;;;;;;;;;22.90;50.30;;;;;;1558404;75;728;-67
2022/10/01 08:23:23;;;;;;;;;;;22.90;50.50;;;;;;1566762;74;703;-67
2022/10/01 08:25:24;;;;;;;;;;;22.90;50.40;;;;;;1565253;74;1557;-66
2022/10/01 08:27:26;;;;;;;;;;;23.00;50.50;;;;;;1561830;74;720;-68
2022/10/01 08:29:28;;;;;;;;;;;23.10;50.50;;;;;;1551467;74;1106;-67
2022/10/01 08:31:30;;;;;;;;;;;23.10;50.60;;;;;;1557516;74;731;-67
2022/10/01 08:33:33;;;;;;;;;;;23.20;50.90;;;;;;1562129;74;1950;-69
2022/10/01 08:35:36;;;;;;;;;;;23.10;51.10;;;;;;1545253;74;801;-64
2022/10/01 08:37:38;;;;;;;;;;;23.20;51.20;;;;;;1570525;74;711;-65
2022/10/01 08:39:40;;;;;;;;;;;23.20;51.20;;;;;;1567053;74;1598;-66
2022/10/01 08:41:44;;;;;;;;;;;23.30;51.30;;;;;;1561227;74;768;-67
2022/10/01 08:43:46;;;;;;;;;;;23.40;51.00;;;;;;1566808;74;876;-68
2022/10/01 08:45:50;;;;;;;;;;;23.40;50.90;;;;;;1566968;74;683;-70
2022/10/01 08:47:54;;;;;;;;;;;23.40;50.70;;;;;;1559268;74;1143;-69
2022/10/01 08:49:58;;;;;;;;;;;23.30;50.30;;;;;;1555484;74;1812;-66
2022/10/01 08:52:04;;;;;;;;;;;23.20;50.10;;;;;;1560281;74;684;-67
2022/10/01 08:54:16;;;;;;;;;;;23.20;50.00;;;;;;1561837;74;1941;-68
2022/10/01 08:56:22;;;;;;;;;;;23.00;49.70;;;;;;1561103;74;1877;-65
2022/10/01 08:58:25;;;;;;;;;;;23.00;49.70;;;;;;1567544;73;1170;-67
2022/10/01 09:00:27;;;;;;;;;;;22.90;49.70;;;;;;1574589;74;1969;-67
2022/10/01 09:02:34;;;;;;;;;;;22.80;49.60;;;;;;1570436;74;786;-67
2022/10/01 09:04:36;;;;;;;;;;;22.80;49.50;;;;;;1578646;74;826;-67
2022/10/01 09:06:38;;;;;;;;;;;22.70;49.50;;;;;;1577183;74;709;-67
2022/10/01 09:08:44;;;;;;;;;;;22.70;49.40;;;;;;1568019;74;1587;-67
2022/10/01 09:10:46;;;;;;;;;;;22.70;49.20;;;;;;1556114;74;1648;-67
2022/10/01 09:12:49;;;;;;;;;;;22.70;49.30;;;;;;1567829;74;909;-66
2022/10/01 09:14:59;;;;;;;;;;;22.60;49.20;;;;;;1568613;74;1930;-64
2022/10/01 09:17:20;;;;;;;;;;;22.60;49.20;;;;;;1577338;74;797;-67
2022/10/01 09:19:41;;;;;;;;;;;22.60;49.10;;;;;;1567437;74;1785;-67
2022/10/01 09:21:50;;;;;;;;;;;22.50;49.10;;;;;;1559907;74;1547;-66
2022/10/01 09:23:56;;;;;;;;;;;22.50;49.10;;;;;;1564277;74;1491;-66
2022/10/01 09:25:58;;;;;;;;;;;22.50;49.00;;;;;;1566306;74;1905;-67
2022/10/01 09:28:02;;;;;;;;;;;22.50;49.10;;;;;;1561639;74;1115;-67
2022/10/01 09:30:04;;;;;;;;;;;22.50;49.00;;;;;;1567599;74;776;-66
2022/10/01 09:32:06;;;;;;;;;;;22.40;48.80;;;;;;1568267;74;768;-66
2022/10/01 09:34:12;;;;;;;;;;;22.50;48.90;;;;;;1570148;74;1943;-67
2022/10/01 09:36:18;;;;;;;;;;;22.50;48.80;;;;;;1575192;74;1557;-66
2022/10/01 09:38:22;;;;;;;;;;;22.40;48.70;;;;;;1575001;74;1165;-66
2022/10/01 09:40:29;;;;;;;;;;;22.40;48.70;;;;;;1572523;74;1818;-66
2022/10/01 09:42:30;;;;;;;;;;;22.40;48.60;;;;;;1574083;74;769;-66
2022/10/01 09:44:32;;;;;;;;;;;22.40;48.60;;;;;;1575452;74;733;-67
2022/10/01 09:46:34;;;;;;;;;;;22.40;48.60;;;;;;1562285;74;802;-67
2022/10/01 09:48:38;;;;;;;;;;;22.40;48.50;;;;;;1575209;74;1176;-68
2022/10/01 09:50:40;;;;;;;;;;;22.40;48.50;;;;;;1579909;74;1256;-67
2022/10/01 09:52:42;;;;;;;;;;;22.40;48.50;;;;;;1573285;74;790;-67
2022/10/01 09:54:48;;;;;;;;;;;22.40;48.50;;;;;;1563514;74;1937;-63
2022/10/01 09:56:51;;;;;;;;;;;22.30;48.40;;;;;;1570859;74;839;-66
2022/10/01 09:58:54;;;;;;;;;;;22.40;48.40;;;;;;1568672;74;1159;-66
2022/10/01 10:00:55;;;;;;;;;;;22.40;48.40;;;;;;1573173;74;748;-66
2022/10/01 10:02:57;;;;;;;;;;;22.30;48.30;;;;;;1579283;74;737;-67
2022/10/01 10:05:00;;;;;;;;;;;22.30;48.40;;;;;;1566620;74;1603;-67
2022/10/01 10:07:03;;;;;;;;;;;22.40;48.30;;;;;;1571606;74;779;-67
2022/10/01 10:09:07;;;;;;;;;;;22.30;48.30;;;;;;1568954;74;1141;-66
2022/10/01 10:11:09;;;;;;;;;;;22.40;48.30;;;;;;1574445;74;925;-66
2022/10/01 10:13:13;;;;;;;;;;;22.30;48.20;;;;;;1573125;74;686;-67
2022/10/01 10:15:20;;;;;;;;;;;22.30;48.20;;;;;;1577860;74;1926;-64
2022/10/01 10:17:24;;;;;;;;;;;22.40;48.20;;;;;;1571917;74;711;-64
2022/10/01 10:19:26;;;;;;;;;;;22.30;48.20;;;;;;1575728;74;1516;-66
2022/10/01 10:21:29;;;;;;;;;;;22.40;48.20;;;;;;1572520;74;724;-67
2022/10/01 10:23:32;;;;;;;;;;;22.30;48.20;;;;;;1575570;74;646;-67
2022/10/01 10:25:34;;;;;;;;;;;22.30;48.20;;;;;;1581692;74;844;-66
2022/10/01 10:27:36;;;;;;;;;;;22.30;48.20;;;;;;1575119;74;773;-66
2022/10/01 10:29:38;;;;;;;;;;;22.30;48.10;;;;;;1581591;74;1053;-67
2022/10/01 10:31:40;;;;;;;;;;;22.30;48.10;;;;;;1585820;74;746;-66
2022/10/01 10:33:50;;;;;;;;;;;22.30;48.10;;;;;;1581492;74;1588;-66
2022/10/01 10:35:53;;;;;;;;;;;22.30;48.10;;;;;;1578458;74;1918;-65
2022/10/01 10:38:01;;;;;;;;;;;22.30;48.10;;;;;;1575938;74;1901;-66
2022/10/01 10:39:59;;;;;;;;;;;22.30;48.10;;;;;;1570777;75;1554;-67
2022/10/01 10:42:02;;;;;;;;;;;22.30;48.10;;;;;;1575709;74;823;-67
2022/10/01 10:44:05;;;;;;;;;;;22.20;48.00;;;;;;1581847;74;760;-66
2022/10/01 10:46:08;;;;;;;;;;;22.30;48.10;;;;;;1576393;74;1504;-67
2022/10/01 10:48:11;;;;;;;;;;;22.20;48.10;;;;;;1581625;74;1164;-68
2022/10/01 10:50:15;;;;;;;;;;;22.30;48.40;;;;;;1578158;75;1174;-68
2022/10/01 10:52:18;;;;;;;;;;;22.40;49.20;;;;;;1584097;74;1810;-68
2022/10/01 10:54:24;;;;;;;;;;;22.40;49.20;;;;;;1581339;74;1900;-67
2022/10/01 10:56:26;;;;;;;;;;;22.40;49.60;;;;;;1575881;74;810;-68
2022/10/01 10:58:32;;;;;;;;;;;22.50;50.20;;;;;;1576394;74;1209;-70
2022/10/01 11:00:35;;;;;;;;;;;22.40;50.00;;;;;;1575546;74;1443;-67
2022/10/01 11:02:38;;;;;;;;;;;22.50;50.00;;;;;;1569439;74;809;-68
2022/10/01 11:04:41;;;;;;;;;;;22.60;49.80;;;;;;1580184;74;669;-72
2022/10/01 11:06:43;;;;;;;;;;;22.80;49.40;;;;;;1577263;74;765;-70
2022/10/01 11:08:55;;;;;;;;;;;22.90;49.20;;;;;;1578766;74;1149;-69
2022/10/01 11:10:55;;;;;;;;;;;22.80;49.50;;;;;;1572050;75;1895;-68
2022/10/01 11:12:58;;;;;;;;;;;22.90;49.30;;;;;;1575838;74;1914;-68
2022/10/01 11:15:14;;;;;;;;;;;23.00;49.90;;;;;;1581768;75;1942;-67
2022/10/01 11:17:20;;;;;;;;;;;22.70;49.90;;;;;;1576679;74;766;-69
2022/10/01 11:19:29;;;;;;;;;;;22.70;50.50;;;;;;1580578;74;2116;-68
2022/10/01 11:21:50;;;;;;;;;;;22.70;50.50;;;;;;1580395;74;722;-68
2022/10/01 11:24:05;;;;;;;;;;;22.60;51.00;;;;;;1576420;74;734;-67
2022/10/01 11:26:09;;;;;;;;;;;22.60;51.00;;;;;;1571066;74;1438;-69
2022/10/01 11:28:25;;;;;;;;;;;22.60;51.00;;;;;;1576842;74;1952;-69
2022/10/01 11:30:31;;;;;;;;;;;22.60;51.50;;;;;;1579834;74;1516;-70
2022/10/01 11:32:41;;;;;;;;;;;22.60;51.10;;;;;;1576447;74;2059;-67
2022/10/01 11:34:47;;;;;;;;;;;22.60;51.40;;;;;;1569818;74;1921;-70
2022/10/01 11:36:49;;;;;;;;;;;22.70;51.00;;;;;;1578451;74;1773;-68
2022/10/01 11:39:05;;;;;;;;;;;22.90;50.30;;;;;;1565741;74;2018;-68
2022/10/01 11:41:25;;;;;;;;;;;23.00;49.80;;;;;;1581898;74;777;-68
2022/10/01 11:43:28;;;;;;;;;;;23.00;49.60;;;;;;1577691;74;1531;-70
2022/10/01 11:45:31;;;;;;;;;;;22.90;49.60;;;;;;1576817;74;849;-69
2022/10/01 11:47:35;;;;;;;;;;;22.90;49.40;;;;;;1581795;75;719;-68
2022/10/01 11:49:48;;;;;;;;;;;22.90;49.40;;;;;;1624436;71;2043;-65
2022/10/01 11:51:51;;;;;;;;;;;22.90;49.40;;;;;;1633658;71;718;-66
2022/10/01 11:53:54;;;;;;;;;;;22.90;49.40;;;;;;1626559;72;2282;-65
2022/10/01 12:00:39;;;;;;;;;;;22.90;49.40;;;;;;1634108;71;1673;-65
2022/10/01 12:02:48;;;;;;;;;;;22.80;49.30;;;;;;1631216;72;829;-67
2022/10/01 12:04:57;;;;;;;;;;;22.80;49.30;;;;;;1635016;72;734;-65
2022/10/01 12:07:00;;;;;;;;;;;22.80;49.30;;;;;;1633289;71;790;-65
2022/10/01 12:09:04;;;;;;;;;;;22.80;49.30;;;;;;1611363;71;1566;-65
2022/10/01 12:11:10;;;;;;;;;;;22.80;49.30;;;;;;1633651;72;1567;-65
2022/10/01 12:13:17;;;;;;;;;;;22.80;49.30;;;;;;1634846;72;818;-65
2022/10/01 12:15:25;;;;;;;;;;;22.80;49.40;;;;;;1636141;71;1909;-65
2022/10/01 12:17:28;;;;;;;;;;;22.80;49.40;;;;;;1634344;71;788;-64
2022/10/01 12:19:32;;;;;;;;;;;22.80;49.40;;;;;;1655231;71;1137;-66
2022/10/01 12:21:41;;;;;;;;;;;22.80;49.40;;;;;;1635433;72;1883;-65